Time;durP1;ratioP1;P1;durP2;ratioP2;P2;SDS_P1;SDS_P2;PMS_P1;PMS_P2;Temp;Humidity;BMP_temperature;BMP_pressure;BME280_temperature;BME280_humidity;BME280_pressure;Samples;Min_cycle;Max_cycle;Signal;HPM_P1;HPM_P2
2023/04/13 00:00:45;;;;;;;5.03;2.83;;;;;;;13.93;37.53;98548.88;4483753;31;32356;-64
2023/04/13 00:03:15;;;;;;;5.70;2.10;;;;;;;13.83;37.99;98543.63;4495940;31;33667;-63
2023/04/13 00:05:44;;;;;;;4.12;2.58;;;;;;;13.42;39.04;98542.69;4491115;31;34632;-63
2023/04/13 00:08:13;;;;;;;5.10;2.47;;;;;;;13.86;38.46;98535.25;4489385;31;35044;-62
2023/04/13 00:10:40;;;;;;;5.47;2.50;;;;;;;13.90;38.79;98535.75;4481884;31;34252;-65
2023/04/13 00:13:09;;;;;;;3.25;2.40;;;;;;;13.93;38.64;98532.72;4490920;31;34671;-63
2023/04/13 00:15:40;;;;;;;3.67;2.53;;;;;;;13.92;39.11;98531.06;4492905;31;34775;-63
2023/04/13 00:18:09;;;;;;;9.40;4.03;;;;;;;14.04;38.35;98528.91;4491452;31;32669;-63
2023/04/13 00:20:38;;;;;;;4.30;2.50;;;;;;;14.00;38.42;98531.09;4494367;31;33537;-63
2023/04/13 00:23:05;;;;;;;5.10;1.98;;;;;;;14.02;38.58;98529.06;4490493;31;34726;-63
2023/04/13 00:25:33;;;;;;;5.10;2.72;;;;;;;14.14;38.25;98533.09;4486951;31;35003;-62
2023/04/13 00:28:02;;;;;;;10.15;3.22;;;;;;;14.11;38.40;98525.38;4489909;31;35045;-64
2023/04/13 00:30:30;;;;;;;4.25;2.58;;;;;;;14.13;38.77;98528.75;4494767;31;33372;-65
2023/04/13 00:32:58;;;;;;;3.12;1.92;;;;;;;13.99;38.87;98522.16;4493728;31;34770;-63
2023/04/13 00:35:27;;;;;;;4.60;2.55;;;;;;;14.13;38.43;98519.84;4486689;31;34875;-63
2023/04/13 00:37:54;;;;;;;4.43;2.80;;;;;;;14.24;38.48;98526.72;4489070;31;33706;-63
2023/04/13 00:40:23;;;;;;;6.45;3.25;;;;;;;14.21;38.79;98519.81;4494194;31;34528;-63
2023/04/13 00:42:52;;;;;;;3.42;2.30;;;;;;;14.28;38.66;98520.00;4489250;31;32602;-63
2023/04/13 00:45:20;;;;;;;8.52;3.53;;;;;;;14.30;38.75;98521.50;4490221;31;34426;-62
2023/04/13 00:47:49;;;;;;;3.80;2.25;;;;;;;14.17;39.07;98523.88;4492515;31;34517;-63
2023/04/13 00:50:19;;;;;;;5.37;2.90;;;;;;;14.14;39.67;98530.41;4489426;31;33241;-68
2023/04/13 00:52:48;;;;;;;4.30;2.65;;;;;;;14.15;40.17;98526.69;4484576;31;34023;-67
2023/04/13 00:55:19;;;;;;;3.00;1.67;;;;;;;14.09;40.38;98523.84;4490943;31;33586;-67
2023/04/13 00:57:51;;;;;;;4.97;2.55;;;;;;;14.04;40.43;98529.72;4489256;31;35420;-65
2023/04/13 01:00:20;;;;;;;7.12;3.42;;;;;;;14.25;39.79;98523.00;4490357;31;33184;-66
2023/04/13 01:02:51;;;;;;;6.37;3.65;;;;;;;14.19;39.49;98520.00;4482683;31;33552;-66
2023/04/13 01:05:20;;;;;;;3.80;2.30;;;;;;;14.24;38.79;98518.66;4492352;31;35061;-66
2023/04/13 01:08:17;;;;;;;4.05;3.03;;;;;;;14.28;38.91;98518.12;4487384;31;35010;-67
2023/04/13 01:11:10;;;;;;;5.40;2.20;;;;;;;14.33;38.54;98520.34;4481361;31;33204;-65
2023/04/13 01:14:00;;;;;;;2.70;2.05;;;;;;;14.28;38.31;98520.00;4488005;31;34697;-65
2023/04/13 01:16:36;;;;;;;3.53;2.55;;;;;;;14.29;38.27;98522.53;4495112;31;35039;-66
2023/04/13 01:19:05;;;;;;;4.03;2.80;;;;;;;14.37;38.10;98519.81;4487259;31;35330;-66
2023/04/13 01:21:34;;;;;;;10.95;3.12;;;;;;;14.32;38.14;98506.03;4483206;31;32924;-66
2023/04/13 01:24:20;;;;;;;8.57;3.90;;;;;;;14.31;38.37;98509.72;4497914;31;32471;-66
2023/04/13 01:26:48;;;;;;;3.72;2.72;;;;;;;14.45;38.64;98503.69;4482251;31;33946;-66
2023/04/13 01:29:16;;;;;;;8.27;3.45;;;;;;;14.43;38.28;98503.00;4489735;31;33928;-67
2023/04/13 01:31:45;;;;;;;5.78;3.00;;;;;;;14.42;38.48;98511.25;4483432;31;34164;-65
2023/04/13 01:34:12;;;;;;;4.40;2.83;;;;;;;14.44;38.47;98504.69;4493166;31;34061;-65
2023/04/13 01:36:40;;;;;;;2.67;2.05;;;;;;;14.51;38.47;98504.03;4492188;31;33764;-66
2023/04/13 01:39:09;;;;;;;2.95;1.83;;;;;;;14.50;37.08;98505.00;4484870;31;33171;-65
2023/04/13 01:41:37;;;;;;;2.62;1.92;;;;;;;14.55;37.66;98510.78;4492722;31;32974;-65
2023/04/13 01:44:06;;;;;;;7.35;2.85;;;;;;;14.61;36.61;98508.25;4490372;31;33560;-68
2023/04/13 01:46:34;;;;;;;4.62;2.20;;;;;;;14.60;37.26;98514.63;4490411;31;34205;-66
2023/04/13 01:49:03;;;;;;;4.30;3.05;;;;;;;14.56;37.75;98515.97;4493850;31;33787;-68
2023/04/13 01:51:33;;;;;;;4.05;2.72;;;;;;;14.49;38.24;98516.81;4490624;31;33456;-65
2023/04/13 01:54:12;;;;;;;3.75;2.75;;;;;;;14.44;38.38;98514.59;4489651;31;34620;-67
2023/04/13 01:56:42;;;;;;;7.20;3.62;;;;;;;14.43;38.71;98512.94;4485683;31;32938;-66
2023/04/13 01:59:10;;;;;;;7.82;3.28;;;;;;;14.46;38.71;98509.91;4487030;31;32637;-65
2023/04/13 02:01:40;;;;;;;3.25;2.10;;;;;;;14.48;38.28;98520.47;4484081;31;34268;-67
2023/04/13 02:04:08;;;;;;;2.42;2.08;;;;;;;14.50;38.29;98508.53;4495745;31;33944;-66
2023/04/13 02:06:36;;;;;;;4.15;3.00;;;;;;;14.55;38.35;98516.16;4482273;31;32501;-66
2023/04/13 02:09:07;;;;;;;7.32;3.03;;;;;;;14.56;38.15;98513.28;4486580;31;34044;-65
2023/04/13 02:11:35;;;;;;;3.72;1.90;;;;;;;14.58;37.63;98510.44;4490086;31;34010;-67
2023/04/13 02:14:03;;;;;;;3.33;2.33;;;;;;;14.39;38.51;98511.59;4496275;31;33755;-68
2023/04/13 02:16:31;;;;;;;7.18;3.45;;;;;;;14.54;38.84;98509.94;4491914;31;35022;-67
2023/04/13 02:19:00;;;;;;;13.65;3.40;;;;;;;14.61;38.81;98510.94;4486957;31;33731;-65
2023/04/13 02:21:27;;;;;;;6.95;2.97;;;;;;;14.64;38.40;98520.53;4488158;31;32863;-68
2023/04/13 02:23:55;;;;;;;5.07;2.90;;;;;;;14.49;39.33;98520.31;4492508;31;33689;-69
2023/04/13 02:26:25;;;;;;;5.37;3.40;;;;;;;14.63;39.02;98510.75;4488218;31;34068;-66
2023/04/13 02:28:52;;;;;;;6.82;3.03;;;;;;;14.65;39.24;98514.97;4486897;31;34539;-65
2023/04/13 02:31:22;;;;;;;4.28;2.30;;;;;;;14.57;39.66;98511.41;4486325;31;34316;-66
2023/04/13 02:33:50;;;;;;;3.97;2.17;;;;;;;14.63;40.04;98508.06;4486090;31;35029;-66
2023/04/13 02:36:19;;;;;;;6.37;3.83;;;;;;;14.61;40.05;98510.09;4488847;31;33987;-65
2023/04/13 02:38:47;;;;;;;4.07;2.12;;;;;;;14.62;40.16;98503.69;4493901;31;33547;-67
2023/04/13 02:41:21;;;;;;;2.83;1.98;;;;;;;14.55;40.24;98503.53;4491502;31;34476;-66
2023/04/13 02:43:49;;;;;;;4.35;2.92;;;;;;;14.63;39.69;98510.75;4494541;31;33692;-67
2023/04/13 02:46:17;;;;;;;5.45;3.12;;;;;;;14.65;39.43;98506.03;4493130;31;35201;-64
2023/04/13 02:48:46;;;;;;;8.63;2.40;;;;;;;14.61;38.68;98499.31;4496929;31;32674;-64
2023/04/13 02:51:14;;;;;;;7.32;3.30;;;;;;;14.47;38.29;98498.09;4489683;31;31857;-65
2023/04/13 02:53:41;;;;;;;6.00;2.65;;;;;;;14.49;38.13;98501.47;4484134;31;34846;-64
2023/04/13 02:56:09;;;;;;;9.88;3.58;;;;;;;14.68;37.72;98501.16;4484781;31;33908;-65
2023/04/13 02:58:37;;;;;;;4.80;2.80;;;;;;;14.58;37.79;98496.97;4492594;31;34807;-65
2023/04/13 03:01:05;;;;;;;7.93;3.12;;;;;;;14.62;37.70;98501.00;4486651;31;33820;-66
2023/04/13 03:03:33;;;;;;;9.18;3.03;;;;;;;14.64;37.70;98504.38;4487332;31;34728;-65
2023/04/13 03:06:01;;;;;;;4.03;2.80;;;;;;;14.32;38.68;98513.28;4488947;31;34121;-64
2023/04/13 03:08:29;;;;;;;4.82;2.62;;;;;;;14.50;38.73;98505.00;4491706;31;34039;-65
2023/04/13 03:10:58;;;;;;;3.67;2.83;;;;;;;14.58;38.54;98503.19;4484371;31;33300;-64
2023/04/13 03:13:26;;;;;;;9.05;4.40;;;;;;;14.59;38.69;98501.34;4495992;31;33658;-66
2023/04/13 03:15:54;;;;;;;4.78;3.53;;;;;;;14.40;39.05;98505.19;4492757;31;33934;-65
2023/04/13 03:18:24;;;;;;;6.40;2.75;;;;;;;14.51;38.53;98502.19;4485135;31;32014;-64
2023/04/13 03:20:52;;;;;;;6.25;1.95;;;;;;;14.37;38.08;98508.22;4493811;31;33224;-65
2023/04/13 03:23:20;;;;;;;5.05;2.40;;;;;;;13.52;39.10;98505.78;4493975;31;32598;-64
2023/04/13 03:25:47;;;;;;;4.75;2.47;;;;;;;13.58;39.01;98509.63;4489580;31;34067;-67
2023/04/13 03:28:18;;;;;;;5.37;2.62;;;;;;;13.50;39.06;98505.06;4490086;31;33727;-69
2023/04/13 03:30:45;;;;;;;4.85;2.80;;;;;;;13.69;39.08;98506.66;4490649;31;32178;-68
2023/04/13 03:33:13;;;;;;;6.55;3.37;;;;;;;14.07;37.86;98499.81;4494981;31;34745;-67
2023/04/13 03:35:41;;;;;;;10.32;3.40;;;;;;;13.75;37.87;98509.50;4497717;31;34909;-69
2023/04/13 03:38:09;;;;;;;5.80;3.03;;;;;;;14.18;37.27;98506.69;4492553;31;33687;-69
2023/04/13 03:40:37;;;;;;;6.32;2.85;;;;;;;14.04;37.46;98502.84;4491666;31;33293;-69
2023/04/13 03:43:05;;;;;;;5.15;3.05;;;;;;;14.16;37.41;98498.81;4481877;31;34629;-67
2023/04/13 03:45:33;;;;;;;2.30;1.50;;;;;;;13.32;38.61;98496.28;4488264;31;35253;-69
2023/04/13 03:48:01;;;;;;;8.13;3.87;;;;;;;13.24;38.96;98492.56;4492248;31;34899;-68
2023/04/13 03:50:30;;;;;;;5.68;2.33;;;;;;;13.18;38.64;98493.16;4486933;31;33678;-68
2023/04/13 03:52:57;;;;;;;5.37;2.95;;;;;;;12.95;38.49;98490.22;4496254;31;34731;-68
2023/04/13 03:55:26;;;;;;;5.15;3.67;;;;;;;13.22;38.15;98483.78;4492263;31;34194;-65
2023/04/13 03:57:54;;;;;;;8.00;3.58;;;;;;;12.81;38.10;98486.31;4487166;31;33731;-66
2023/04/13 04:00:23;;;;;;;4.47;2.87;;;;;;;12.64;38.62;98479.13;4491321;31;33096;-65
2023/04/13 04:02:51;;;;;;;7.97;3.78;;;;;;;13.38;37.31;98488.41;4490289;31;33917;-65
2023/04/13 04:05:20;;;;;;;4.53;3.42;;;;;;;12.45;38.06;98488.22;4489431;31;32981;-65
2023/04/13 04:07:48;;;;;;;6.15;3.47;;;;;;;11.82;40.20;98497.25;4490986;31;35244;-66
2023/04/13 04:10:16;;;;;;;13.27;5.80;;;;;;;13.09;37.77;98496.00;4491088;31;34173;-66
2023/04/13 04:12:44;;;;;;;6.75;3.90;;;;;;;12.62;38.39;98499.09;4493823;31;33966;-67
2023/04/13 04:15:12;;;;;;;5.95;3.45;;;;;;;12.47;39.61;98502.34;4495340;31;33656;-62
2023/04/13 04:17:40;;;;;;;5.07;3.00;;;;;;;12.03;39.08;98498.81;4492065;31;33884;-63
2023/04/13 04:20:08;;;;;;;5.20;4.10;;;;;;;12.11;39.32;98504.25;4490501;31;33494;-63
2023/04/13 04:22:36;;;;;;;4.00;3.20;;;;;;;11.84;38.95;98497.97;4495010;31;32644;-63
2023/04/13 04:25:05;;;;;;;3.58;2.55;;;;;;;11.98;38.90;98493.09;4494733;31;33823;-62
2023/04/13 04:27:37;;;;;;;4.62;2.60;;;;;;;12.01;39.37;98492.78;4493524;31;33282;-63
2023/04/13 04:30:09;;;;;;;4.65;2.92;;;;;;;12.62;37.70;98501.78;4485635;31;32058;-63
2023/04/13 04:32:37;;;;;;;3.45;2.62;;;;;;;13.16;36.50;98502.38;4493327;31;34830;-62
2023/04/13 04:35:06;;;;;;;8.30;3.70;;;;;;;13.35;36.03;98498.63;4491177;31;34057;-62
2023/04/13 04:37:36;;;;;;;5.85;4.10;;;;;;;12.21;37.62;98507.69;4494436;31;32793;-62
2023/04/13 04:40:09;;;;;;;5.53;3.85;;;;;;;12.13;38.19;98510.28;4490948;31;32692;-63
2023/04/13 04:42:37;;;;;;;4.18;3.17;;;;;;;12.05;38.92;98503.03;4492015;31;33604;-62
2023/04/13 04:45:05;;;;;;;7.25;3.10;;;;;;;12.15;38.59;98502.09;4489516;31;33925;-62
2023/04/13 04:47:42;;;;;;;5.70;3.40;;;;;;;12.37;38.73;98503.44;4494098;31;33330;-63
2023/04/13 04:50:13;;;;;;;5.43;3.10;;;;;;;12.91;38.17;98514.87;4487173;31;33241;-62
2023/04/13 04:52:41;;;;;;;5.80;3.17;;;;;;;12.53;37.57;98512.47;4484856;31;32693;-63
2023/04/13 04:55:09;;;;;;;7.03;3.35;;;;;;;13.15;36.66;98514.16;4494279;31;35649;-63
2023/04/13 04:57:38;;;;;;;6.53;4.12;;;;;;;13.39;36.18;98508.91;4486270;31;33883;-62
2023/04/13 05:00:13;;;;;;;14.68;3.95;;;;;;;11.87;38.87;98513.75;4482788;31;33879;-62
2023/04/13 05:02:42;;;;;;;;;;;;;;;13.10;37.03;98509.28;4488384;31;35018;-63
2023/04/13 05:05:10;;;;;;;8.20;4.03;;;;;;;13.43;36.10;98507.59;4486224;31;34242;-62
2023/04/13 05:07:38;;;;;;;7.97;3.53;;;;;;;12.28;37.71;98500.69;4482335;31;33346;-64
2023/04/13 05:10:08;;;;;;;9.82;5.00;;;;;;;13.10;36.96;98508.41;4489551;31;33506;-63
2023/04/13 05:12:36;;;;;;;4.90;3.53;;;;;;;13.03;37.01;98509.06;4483125;31;34633;-66
2023/04/13 05:15:05;;;;;;;10.30;4.70;;;;;;;12.79;37.62;98503.56;4485084;31;33743;-66
2023/04/13 05:17:35;;;;;;;14.18;3.90;;;;;;;13.14;36.89;98504.41;4490247;31;33793;-65
2023/04/13 05:20:05;;;;;;;7.03;3.30;;;;;;;13.46;36.30;98507.25;4490632;31;33244;-65
2023/04/13 05:22:34;;;;;;;4.57;2.90;;;;;;;13.33;36.26;98517.63;4481825;31;33812;-63
2023/04/13 05:25:02;;;;;;;5.18;3.12;;;;;;;13.77;35.97;98521.94;4489421;31;35030;-63
2023/04/13 05:27:30;;;;;;;5.55;3.95;;;;;;;13.20;36.51;98515.34;4492500;31;33842;-64
2023/04/13 05:29:58;;;;;;;6.78;3.78;;;;;;;13.23;36.17;98519.56;4487856;31;33552;-64
2023/04/13 05:32:25;;;;;;;4.80;3.10;;;;;;;14.10;35.16;98528.22;4491355;31;34929;-64
2023/04/13 05:34:53;;;;;;;3.92;2.62;;;;;;;14.26;35.09;98530.09;4490851;31;34051;-64
2023/04/13 05:37:21;;;;;;;2.65;1.95;;;;;;;14.26;35.09;98520.16;4493362;31;34054;-63
2023/04/13 05:39:50;;;;;;;3.83;3.10;;;;;;;14.12;34.79;98513.59;4496389;31;31751;-63
2023/04/13 05:42:18;;;;;;;3.53;2.62;;;;;;;14.19;35.87;98517.31;4491334;31;33904;-63
2023/04/13 05:44:47;;;;;;;3.80;2.03;;;;;;;14.36;34.19;98531.59;4497686;31;33930;-66
2023/04/13 05:47:20;;;;;;;9.55;3.30;;;;;;;14.52;33.72;98517.34;4496756;31;33882;-64
2023/04/13 05:49:48;;;;;;;7.28;3.35;;;;;;;14.17;34.43;98518.47;4497982;31;34412;-66
2023/04/13 05:52:17;;;;;;;6.57;3.80;;;;;;;13.64;35.07;98517.91;4487888;31;35020;-64
2023/04/13 05:54:45;;;;;;;7.00;3.72;;;;;;;14.25;34.51;98518.47;4493215;31;33681;-65
2023/04/13 05:57:13;;;;;;;5.22;3.60;;;;;;;14.27;35.26;98519.16;4496845;31;33830;-64
2023/04/13 05:59:40;;;;;;;4.18;2.17;;;;;;;14.49;34.08;98517.63;4486376;31;33529;-63
2023/04/13 06:02:08;;;;;;;5.93;3.33;;;;;;;14.33;34.46;98512.25;4490678;31;33680;-64
2023/04/13 06:04:36;;;;;;;6.10;3.53;;;;;;;14.23;35.06;98517.81;4488448;31;33898;-64
2023/04/13 06:07:04;;;;;;;6.93;3.65;;;;;;;14.20;35.39;98508.22;4492847;31;33787;-63
2023/04/13 06:09:32;;;;;;;4.30;3.50;;;;;;;13.62;36.82;98514.53;4497303;31;33491;-64
2023/04/13 06:12:01;;;;;;;3.17;2.85;;;;;;;13.96;36.11;98516.25;4488832;31;33882;-66
2023/04/13 06:14:28;;;;;;;11.60;3.25;;;;;;;13.85;36.38;98519.28;4496504;31;34980;-63
2023/04/13 06:16:56;;;;;;;5.45;2.42;;;;;;;13.54;36.23;98517.19;4494743;31;34257;-64
2023/04/13 06:19:24;;;;;;;7.25;2.78;;;;;;;13.90;36.24;98512.41;4493751;31;33450;-65
2023/04/13 06:21:55;;;;;;;2.53;1.90;;;;;;;14.61;34.89;98505.53;4491413;31;33578;-63
2023/04/13 06:24:23;;;;;;;4.65;2.85;;;;;;;14.85;34.47;98511.88;4500157;31;33691;-64
2023/04/13 06:26:51;;;;;;;7.12;4.93;;;;;;;14.59;34.29;98514.81;4498204;31;34717;-64
2023/04/13 06:29:19;;;;;;;7.72;2.62;;;;;;;14.39;34.88;98522.34;4483703;31;33188;-64
2023/04/13 06:31:48;;;;;;;4.80;2.50;;;;;;;14.33;35.04;98517.66;4493554;31;34102;-63
2023/04/13 06:34:16;;;;;;;6.30;3.47;;;;;;;14.79;34.27;98521.50;4493552;31;33781;-63
2023/04/13 06:36:43;;;;;;;3.85;2.30;;;;;;;14.74;34.68;98523.88;4498674;31;33686;-62
2023/04/13 06:39:12;;;;;;;8.75;3.60;;;;;;;14.76;34.76;98526.38;4495391;31;34102;-65
2023/04/13 06:41:40;;;;;;;6.97;2.97;;;;;;;13.27;36.56;98521.78;4491003;31;33592;-65
2023/04/13 06:44:09;;;;;;;7.85;2.72;;;;;;;14.15;34.92;98540.16;4499675;31;33185;-64
2023/04/13 06:46:37;;;;;;;4.55;2.47;;;;;;;14.53;33.75;98534.31;4501309;31;34006;-64
2023/04/13 06:49:06;;;;;;;2.45;1.75;;;;;;;14.88;33.36;98533.09;4491639;31;34077;-64
2023/04/13 06:51:33;;;;;;;9.23;3.58;;;;;;;14.76;33.74;98531.75;4489104;31;33993;-63
2023/04/13 06:54:01;;;;;;;3.47;1.67;;;;;;;15.12;32.75;98524.13;4484786;31;35120;-63
2023/04/13 06:56:29;;;;;;;1.95;1.65;;;;;;;14.89;32.93;98532.06;4488411;31;33552;-64
2023/04/13 06:59:00;;;;;;;6.57;3.25;;;;;;;14.46;33.46;98531.44;4497801;31;33302;-64
2023/04/13 07:01:30;;;;;;;3.42;2.15;;;;;;;13.99;34.65;98532.91;4489243;31;33644;-65
2023/04/13 07:03:58;;;;;;;5.82;3.15;;;;;;;14.96;33.04;98533.09;4492055;31;33982;-64
2023/04/13 07:06:26;;;;;;;5.22;2.60;;;;;;;15.07;32.44;98538.09;4493760;31;33763;-64
2023/04/13 07:08:54;;;;;;;4.87;2.17;;;;;;;15.51;32.62;98543.00;4491828;31;32255;-65
2023/04/13 07:11:24;;;;;;;6.18;3.03;;;;;;;15.71;32.58;98545.31;4487739;31;33910;-64
2023/04/13 07:13:52;;;;;;;8.05;2.60;;;;;;;15.10;33.11;98543.16;4498480;31;33944;-65
2023/04/13 07:16:20;;;;;;;2.83;1.73;;;;;;;15.53;32.61;98545.50;4493492;31;33719;-64
2023/04/13 07:18:47;;;;;;;3.35;2.17;;;;;;;15.58;32.53;98545.84;4487127;31;33462;-64
2023/04/13 07:21:15;;;;;;;4.80;2.97;;;;;;;15.03;33.64;98552.94;4485295;31;34709;-64
2023/04/13 07:23:44;;;;;;;4.47;2.28;;;;;;;15.39;32.81;98547.09;4489257;31;34972;-67
2023/04/13 07:26:13;;;;;;;3.17;2.55;;;;;;;16.20;32.11;98548.53;4490267;31;33776;-64
2023/04/13 07:28:41;;;;;;;14.95;3.70;;;;;;;16.24;32.69;98546.31;4498317;31;33330;-62
2023/04/13 07:31:10;;;;;;;4.85;3.25;;;;;;;15.35;33.37;98559.25;4485640;31;33804;-62
2023/04/13 07:33:38;;;;;;;7.57;4.80;;;;;;;15.33;33.84;98555.88;4495240;31;33901;-62
2023/04/13 07:36:07;;;;;;;3.40;2.10;;;;;;;15.61;33.54;98550.88;4495614;31;34926;-62
2023/04/13 07:38:37;;;;;;;10.18;2.97;;;;;;;16.09;33.65;98551.66;4492731;31;33290;-62
2023/04/13 07:41:06;;;;;;;4.15;3.03;;;;;;;15.99;33.34;98554.59;4496487;31;32671;-62
2023/04/13 07:43:34;;;;;;;3.60;2.72;;;;;;;15.10;34.08;98559.31;4484917;31;33825;-62
2023/04/13 07:46:10;;;;;;;4.40;2.22;;;;;;;15.94;33.01;98553.44;4489977;31;32577;-62
2023/04/13 07:48:38;;;;;;;5.85;2.47;;;;;;;16.13;33.14;98552.13;4485420;31;33016;-61
2023/04/13 07:51:16;;;;;;;4.18;2.47;;;;;;;14.98;34.95;98559.84;4490943;31;34158;-62
2023/04/13 07:53:44;;;;;;;9.68;3.58;;;;;;;15.42;35.11;98560.22;4487559;31;34221;-62
2023/04/13 07:56:12;;;;;;;5.30;2.92;;;;;;;15.84;33.69;98559.87;4497052;31;34534;-62
2023/04/13 07:58:40;;;;;;;5.57;3.00;;;;;;;15.40;34.41;98558.72;4484516;31;33167;-62
2023/04/13 08:01:08;;;;;;;8.32;2.67;;;;;;;15.63;34.09;98553.37;4489271;31;34902;-62
2023/04/13 08:03:36;;;;;;;8.02;3.37;;;;;;;16.47;33.34;98549.00;4484432;31;33670;-62
2023/04/13 08:06:06;;;;;;;4.78;2.55;;;;;;;15.95;33.08;98564.03;4488736;31;33618;-62
2023/04/13 08:08:34;;;;;;;8.90;3.67;;;;;;;16.33;32.74;98556.03;4486705;31;33020;-63
2023/04/13 08:11:02;;;;;;;2.67;1.75;;;;;;;15.33;34.36;98553.19;4495228;31;33863;-64
2023/04/13 08:13:31;;;;;;;2.65;2.17;;;;;;;16.47;32.67;98552.56;4492395;31;34817;-63
2023/04/13 08:15:59;;;;;;;4.68;2.37;;;;;;;16.54;32.29;98547.25;4491779;31;34256;-63
2023/04/13 08:18:27;;;;;;;4.90;2.65;;;;;;;16.59;32.90;98549.41;4485024;31;34289;-63
2023/04/13 08:20:55;;;;;;;5.15;2.12;;;;;;;16.47;32.46;98555.25;4484706;32;33734;-63
2023/04/13 08:23:23;;;;;;;5.15;2.42;;;;;;;16.37;32.33;98551.09;4485794;31;35028;-63
2023/04/13 08:25:50;;;;;;;11.25;2.85;;;;;;;15.99;32.89;98548.34;4491499;31;34620;-62
2023/04/13 08:28:18;;;;;;;4.18;2.78;;;;;;;16.05;32.81;98556.56;4494508;31;32025;-65
2023/04/13 08:30:45;;;;;;;6.03;3.30;;;;;;;16.59;31.69;98555.63;4489017;31;34671;-64
2023/04/13 08:33:13;;;;;;;5.72;3.33;;;;;;;16.69;32.69;98556.25;4489255;31;35106;-64
2023/04/13 08:35:41;;;;;;;4.20;2.70;;;;;;;16.83;32.25;98546.53;4486180;31;34074;-64
2023/04/13 08:38:09;;;;;;;8.20;2.87;;;;;;;16.78;32.34;98540.81;4486024;31;32382;-64
2023/04/13 08:40:39;;;;;;;10.88;2.22;;;;;;;17.19;31.64;98546.63;4487194;31;33626;-62
2023/04/13 08:43:08;;;;;;;11.88;3.55;;;;;;;17.03;31.66;98548.69;4498067;31;33953;-64
2023/04/13 08:45:40;;;;;;;9.60;2.53;;;;;;;16.32;32.59;98548.94;4490735;31;33062;-64
2023/04/13 08:48:10;;;;;;;8.40;3.47;;;;;;;16.28;32.66;98536.84;4492189;31;32696;-64
2023/04/13 08:50:38;;;;;;;4.00;2.28;;;;;;;16.07;32.55;98546.41;4489071;31;34727;-66
2023/04/13 08:53:07;;;;;;;2.92;2.00;;;;;;;17.00;31.84;98542.63;4482543;31;34145;-65
2023/04/13 08:55:42;;;;;;;4.18;2.40;;;;;;;17.54;30.63;98532.53;4483406;31;34723;-66
2023/04/13 08:58:11;;;;;;;5.70;2.83;;;;;;;17.61;30.17;98533.47;4491915;31;34500;-64
2023/04/13 09:00:40;;;;;;;4.37;2.67;;;;;;;17.19;31.59;98537.69;4498500;31;32929;-65
2023/04/13 09:03:11;;;;;;;6.70;2.53;;;;;;;17.92;30.33;98531.38;4496719;31;35053;-64
2023/04/13 09:05:41;;;;;;;6.12;2.60;;;;;;;17.90;30.79;98530.72;4496836;31;33651;-63
2023/04/13 09:08:12;;;;;;;5.80;2.70;;;;;;;18.09;30.91;98541.97;4489641;31;31993;-65
2023/04/13 09:10:41;;;;;;;5.68;2.37;;;;;;;17.37;30.67;98534.62;4493246;31;35013;-63
2023/04/13 09:13:08;;;;;;;6.15;2.72;;;;;;;17.65;30.72;98534.75;4488495;31;34006;-63
2023/04/13 09:15:36;;;;;;;6.32;2.25;;;;;;;17.25;31.44;98528.00;4495049;31;33736;-63
2023/04/13 09:18:06;;;;;;;2.87;1.67;;;;;;;16.90;31.16;98528.53;4487498;31;33153;-65
2023/04/13 09:20:35;;;;;;;4.15;1.98;;;;;;;16.34;30.88;98532.56;4498875;31;33556;-63
2023/04/13 09:23:15;;;;;;;6.55;2.95;;;;;;;15.32;33.29;98541.56;4497491;31;33898;-64
2023/04/13 09:25:44;;;;;;;5.93;3.15;;;;;;;15.93;31.67;98540.97;4497555;31;35340;-67
2023/04/13 09:28:18;;;;;;;4.80;2.37;;;;;;;16.61;31.26;98537.41;4494473;31;33244;-65
2023/04/13 09:30:46;;;;;;;4.28;2.72;;;;;;;17.18;30.85;98533.31;4498511;31;34746;-64
2023/04/13 09:33:14;;;;;;;5.25;2.60;;;;;;;15.90;32.54;98534.06;4491458;31;35195;-63
2023/04/13 09:35:42;;;;;;;4.32;2.20;;;;;;;16.24;32.40;98533.66;4488278;31;33821;-64
2023/04/13 09:38:14;;;;;;;8.85;3.45;;;;;;;16.34;32.24;98529.84;4487619;31;32572;-64
2023/04/13 09:40:48;;;;;;;3.25;2.03;;;;;;;16.68;31.66;98526.69;4489646;31;33816;-63
2023/04/13 09:43:16;;;;;;;4.12;2.10;;;;;;;17.55;31.31;98529.63;4492091;31;33711;-64
2023/04/13 09:45:43;;;;;;;5.45;2.28;;;;;;;17.35;31.00;98528.56;4498032;31;34004;-63
2023/04/13 09:48:20;;;;;;;13.40;2.75;;;;;;;16.94;31.76;98532.53;4494138;31;33060;-64
2023/04/13 09:51:04;;;;;;;5.05;2.65;;;;;;;16.59;31.97;98538.59;4490334;31;33781;-64
2023/04/13 09:53:42;;;;;;;7.43;3.15;;;;;;;16.72;32.05;98530.69;4490199;31;33632;-65
2023/04/13 09:56:10;;;;;;;3.92;3.05;;;;;;;17.65;30.96;98532.03;4491992;31;34446;-64
2023/04/13 09:58:43;;;;;;;4.18;2.53;;;;;;;17.09;32.12;98529.03;4494346;31;33440;-66
2023/04/13 10:01:14;;;;;;;5.37;2.50;;;;;;;16.70;32.28;98517.41;4488960;31;33903;-65
2023/04/13 10:03:42;;;;;;;3.92;2.25;;;;;;;16.95;32.13;98519.84;4493686;31;34020;-67
2023/04/13 10:06:10;;;;;;;13.23;6.90;;;;;;;17.77;31.48;98529.72;4498705;31;34912;-64
2023/04/13 10:08:38;;;;;;;11.60;4.47;;;;;;;16.69;32.24;98528.38;4493494;31;33443;-65
2023/04/13 10:11:13;;;;;;;3.95;2.55;;;;;;;16.89;31.84;98534.97;4485672;32;33683;-66
2023/04/13 10:13:49;;;;;;;3.72;2.42;;;;;;;17.20;32.24;98528.53;4485938;31;34852;-66
2023/04/13 10:16:26;;;;;;;5.62;2.20;;;;;;;17.99;30.58;98534.16;4484010;31;33325;-66
2023/04/13 10:19:03;;;;;;;3.87;1.98;;;;;;;17.21;31.21;98530.25;4487827;31;34422;-65
2023/04/13 10:21:34;;;;;;;3.35;2.05;;;;;;;16.80;31.09;98522.56;4485758;31;32741;-65
2023/04/13 10:24:07;;;;;;;5.60;2.28;;;;;;;16.44;32.02;98534.00;4489366;31;34341;-65
2023/04/13 10:26:40;;;;;;;6.00;2.97;;;;;;;16.51;31.99;98529.56;4495612;31;33807;-66
2023/04/13 10:29:08;;;;;;;5.25;1.85;;;;;;;16.62;31.83;98536.38;4495504;31;34488;-64
2023/04/13 10:31:38;;;;;;;12.77;2.75;;;;;;;16.74;31.95;98529.50;4490417;31;34486;-66
2023/04/13 10:34:06;;;;;;;6.45;2.95;;;;;;;16.80;31.74;98522.56;4485315;31;33752;-65
2023/04/13 10:36:41;;;;;;;6.57;2.87;;;;;;;16.52;32.57;98533.91;4489080;31;35301;-65
2023/04/13 10:39:10;;;;;;;3.83;1.87;;;;;;;16.16;33.28;98535.56;4489270;31;34496;-66
2023/04/13 10:41:37;;;;;;;4.65;2.40;;;;;;;17.00;32.03;98525.56;4491542;31;33838;-66
2023/04/13 10:44:06;;;;;;;3.62;2.12;;;;;;;17.25;31.99;98526.12;4490335;31;34105;-67
2023/04/13 10:46:34;;;;;;;5.40;2.95;;;;;;;17.30;32.40;98526.38;4490491;31;32181;-65
2023/04/13 10:49:03;;;;;;;2.78;1.92;;;;;;;17.18;32.48;98523.34;4496900;31;33987;-66
2023/04/13 10:51:38;;;;;;;5.68;3.15;;;;;;;17.75;31.36;98515.50;4486442;31;34830;-69
2023/04/13 10:54:08;;;;;;;;;;;;;;;17.84;31.97;98512.53;4495845;31;33953;-65
2023/04/13 10:56:36;;;;;;;3.55;2.22;;;;;;;17.40;32.26;98515.31;4495314;31;34136;-65
2023/04/13 10:59:03;;;;;;;4.12;2.75;;;;;;;17.65;31.83;98513.09;4493165;31;34594;-66
2023/04/13 11:01:32;;;;;;;3.92;1.95;;;;;;;17.48;31.92;98517.06;4491602;31;33696;-65
2023/04/13 11:04:04;;;;;;;3.83;2.25;;;;;;;18.04;31.69;98511.91;4491132;31;34987;-67
2023/04/13 11:06:37;;;;;;;6.10;3.20;;;;;;;18.63;31.40;98495.38;4498343;31;32323;-66
2023/04/13 11:09:05;;;;;;;9.10;3.65;;;;;;;18.52;31.69;98506.72;4490783;31;34152;-65
2023/04/13 11:11:35;;;;;;;6.22;2.70;;;;;;;18.33;31.79;98506.38;4491657;31;33763;-66
2023/04/13 11:14:03;;;;;;;10.35;3.10;;;;;;;18.60;31.69;98504.72;4492791;31;32770;-65
2023/04/13 11:16:31;;;;;;;4.07;2.47;;;;;;;18.03;32.48;98510.22;4491883;31;34215;-65
2023/04/13 11:19:02;;;;;;;8.63;3.17;;;;;;;18.49;31.89;98504.41;4489342;31;33843;-65
2023/04/13 11:21:30;;;;;;;9.77;3.72;;;;;;;18.24;32.37;98493.16;4495452;31;33904;-65
2023/04/13 11:24:00;;;;;;;6.85;3.40;;;;;;;18.75;31.46;98493.00;4491453;31;35064;-66
2023/04/13 11:26:33;;;;;;;4.12;2.00;;;;;;;18.97;31.21;98483.75;4491170;31;33002;-65
2023/04/13 11:29:02;;;;;;;5.00;2.45;;;;;;;19.14;31.15;98486.16;4489064;31;33167;-67
2023/04/13 11:31:40;;;;;;;6.87;2.95;;;;;;;19.39;30.61;98479.19;4497373;31;33872;-66
2023/04/13 11:34:10;;;;;;;4.72;2.28;;;;;;;20.14;30.32;98480.03;4490695;31;33837;-66
2023/04/13 11:36:38;;;;;;;4.70;2.65;;;;;;;19.68;29.29;98478.06;4490919;31;34776;-66
2023/04/13 11:39:09;;;;;;;4.70;3.17;;;;;;;18.90;30.41;98479.31;4489189;31;34006;-68
2023/04/13 11:41:41;;;;;;;5.43;3.25;;;;;;;19.38;30.17;98477.50;4487793;31;33836;-67
2023/04/13 11:44:12;;;;;;;6.85;3.28;;;;;;;18.50;29.75;98485.25;4499479;31;33686;-66